Time;durP1;ratioP1;P1;durP2;ratioP2;P2;SDS_P1;SDS_P2;PMS_P1;PMS_P2;Temp;Humidity;BMP_temperature;BMP_pressure;BME280_temperature;BME280_humidity;BME280_pressure;Samples;Min_cycle;Max_cycle;Signal;HPM_P1;HPM_P2
2022/07/10 00:04:11;;;;;;;1.58;0.65;;;21.80;58.00;;;;;;10382534;28;20029;-53
2022/07/10 00:09:14;;;;;;;0.98;0.70;;;21.90;58.10;;;;;;10400478;28;20503;-55
2022/07/10 00:14:14;;;;;;;1.35;0.75;;;21.80;58.00;;;;;;10400765;28;20037;-54
2022/07/10 00:19:15;;;;;;;1.73;0.90;;;21.80;58.10;;;;;;10389714;28;20026;-56
2022/07/10 00:24:16;;;;;;;3.28;1.30;;;21.80;58.20;;;;;;10373768;28;20030;-54
2022/07/10 00:29:16;;;;;;;2.40;1.17;;;21.80;58.30;;;;;;10372552;28;20030;-56
2022/07/10 00:34:17;;;;;;;1.42;0.80;;;21.80;58.30;;;;;;10372212;28;20041;-55
2022/07/10 00:39:18;;;;;;;1.63;0.70;;;21.80;58.40;;;;;;10386468;28;20053;-55
2022/07/10 00:44:19;;;;;;;1.73;0.65;;;21.80;58.10;;;;;;10372465;28;20025;-55
2022/07/10 00:49:19;;;;;;;1.70;0.80;;;21.80;58.20;;;;;;10398227;28;20029;-56
2022/07/10 00:54:20;;;;;;;1.80;1.00;;;21.80;58.30;;;;;;10379259;28;20120;-56
2022/07/10 00:59:22;;;;;;;2.20;0.90;;;21.80;58.30;;;;;;10381304;28;20037;-56
2022/07/10 01:04:24;;;;;;;1.35;0.80;;;21.70;58.10;;;;;;10370798;28;20053;-55
2022/07/10 01:09:26;;;;;;;2.72;0.80;;;21.80;58.30;;;;;;10370686;28;20034;-55
2022/07/10 01:14:31;;;;;;;1.58;0.65;;;21.80;58.30;;;;;;10370372;28;20105;-54
2022/07/10 01:19:31;;;;;;;1.38;0.90;;;21.80;58.40;;;;;;10354309;28;20641;-55
2022/07/10 01:24:32;;;;;;;2.10;0.60;;;21.70;58.40;;;;;;10370011;28;20030;-56
2022/07/10 01:29:34;;;;;;;2.25;1.08;;;21.70;58.30;;;;;;10383123;28;20029;-55
2022/07/10 01:34:35;;;;;;;2.75;1.23;;;21.70;58.40;;;;;;10384273;28;20041;-56
2022/07/10 01:39:35;;;;;;;2.40;0.82;;;21.70;58.30;;;;;;10395780;28;20417;-55
2022/07/10 01:44:36;;;;;;;2.00;0.90;;;21.70;58.20;;;;;;10395826;28;20028;-55
2022/07/10 01:49:37;;;;;;;2.28;0.80;;;21.70;58.30;;;;;;10391765;28;20028;-55
2022/07/10 01:54:38;;;;;;;2.30;1.10;;;21.70;58.30;;;;;;10370111;28;20022;-55
2022/07/10 01:59:40;;;;;;;1.55;0.90;;;21.70;58.30;;;;;;10365682;28;20041;-55
2022/07/10 02:04:40;;;;;;;1.85;0.80;;;21.70;58.40;;;;;;10377809;28;20057;-55
2022/07/10 02:09:42;;;;;;;1.30;0.80;;;21.70;58.40;;;;;;10410666;28;20430;-55
2022/07/10 02:14:43;;;;;;;2.00;0.93;;;21.70;58.50;;;;;;10394314;28;20025;-55
2022/07/10 02:19:44;;;;;;;1.48;0.70;;;21.60;58.50;;;;;;10381575;28;20030;-55
2022/07/10 02:24:44;;;;;;;3.88;1.48;;;21.70;58.60;;;;;;10381237;28;20030;-54
2022/07/10 02:29:45;;;;;;;1.85;1.10;;;21.70;58.60;;;;;;10372860;28;20117;-55
2022/07/10 02:34:46;;;;;;;3.22;0.70;;;21.70;58.50;;;;;;10375907;28;20338;-56
2022/07/10 02:39:46;;;;;;;2.20;1.02;;;21.60;58.50;;;;;;10368597;28;20148;-55
2022/07/10 02:44:47;;;;;;;2.05;0.80;;;21.60;58.50;;;;;;10374737;28;20362;-53
2022/07/10 02:49:48;;;;;;;1.20;0.70;;;21.60;58.40;;;;;;10386750;28;20049;-54
2022/07/10 02:54:50;;;;;;;1.20;0.63;;;21.60;58.40;;;;;;10366859;28;20646;-55
2022/07/10 02:59:51;;;;;;;2.35;1.23;;;21.60;58.40;;;;;;10380013;28;20037;-55
2022/07/10 03:04:53;;;;;;;2.38;0.60;;;21.60;58.50;;;;;;10394024;28;20424;-54
2022/07/10 03:09:54;;;;;;;1.63;0.90;;;21.60;58.40;;;;;;10376042;28;20548;-55
2022/07/10 03:14:54;;;;;;;0.95;0.73;;;21.60;58.50;;;;;;10376963;28;20104;-54
2022/07/10 03:19:55;;;;;;;1.00;0.65;;;21.60;58.40;;;;;;10408430;28;20075;-55
2022/07/10 03:24:58;;;;;;;1.83;0.80;;;21.60;58.50;;;;;;10401869;28;20472;-55
2022/07/10 03:29:59;;;;;;;2.55;0.82;;;21.60;58.60;;;;;;10395566;28;20025;-55
2022/07/10 03:35:00;;;;;;;2.22;1.00;;;21.60;58.60;;;;;;10374254;28;20030;-55
2022/07/10 03:40:00;;;;;;;1.58;0.77;;;21.60;58.60;;;;;;10373350;28;20488;-55
2022/07/10 03:45:01;;;;;;;2.33;0.88;;;21.60;58.60;;;;;;10374152;28;20582;-55
2022/07/10 03:50:02;;;;;;;2.10;0.90;;;21.60;58.60;;;;;;10384826;28;20022;-53
2022/07/10 03:55:03;;;;;;;1.30;0.80;;;21.50;58.60;;;;;;10382468;28;20485;-55
2022/07/10 04:00:05;;;;;;;3.78;0.85;;;21.50;58.60;;;;;;10387646;28;20489;-56
2022/07/10 04:05:07;;;;;;;1.63;0.80;;;21.50;58.70;;;;;;10372825;28;20045;-56
2022/07/10 04:10:09;;;;;;;2.88;0.82;;;21.60;58.70;;;;;;10372881;28;20090;-55
2022/07/10 04:15:11;;;;;;;2.17;0.75;;;21.50;58.60;;;;;;10372892;28;20030;-56
2022/07/10 04:20:11;;;;;;;1.85;0.60;;;21.50;58.70;;;;;;10372818;28;20026;-55
2022/07/10 04:25:13;;;;;;;2.00;0.98;;;21.50;58.70;;;;;;10371129;28;20088;-54
2022/07/10 04:30:13;;;;;;;2.45;0.80;;;21.50;58.80;;;;;;10381868;28;20056;-54
2022/07/10 04:35:15;;;;;;;2.38;0.60;;;21.50;58.70;;;;;;10399971;28;20112;-55
2022/07/10 04:40:15;;;;;;;1.92;0.75;;;21.50;58.70;;;;;;10400885;28;20057;-54
2022/07/10 04:45:16;;;;;;;1.85;0.80;;;21.50;58.80;;;;;;10374722;28;20030;-55
2022/07/10 04:50:17;;;;;;;2.38;0.95;;;21.50;58.90;;;;;;10374576;28;20165;-54
2022/07/10 04:55:17;;;;;;;4.18;0.98;;;21.50;58.80;;;;;;10367943;28;20040;-56
2022/07/10 05:00:18;;;;;;;5.45;0.90;;;21.50;59.10;;;;;;10371440;28;20038;-55
2022/07/10 05:05:19;;;;;;;3.80;1.13;;;21.50;59.70;;;;;;10402082;28;20060;-56
2022/07/10 05:10:20;;;;;;;3.25;1.23;;;21.60;59.80;;;;;;10392436;28;20028;-50
2022/07/10 05:15:21;;;;;;;5.53;1.50;;;21.60;60.10;;;;;;10397687;28;20040;-55
2022/07/10 05:20:21;;;;;;;6.88;1.75;;;21.60;60.30;;;;;;10387618;28;20026;-57
2022/07/10 05:25:22;;;;;;;4.63;1.65;;;21.60;59.90;;;;;;10371501;28;20033;-53
2022/07/10 05:30:23;;;;;;;6.53;1.13;;;21.60;60.40;;;;;;10383789;28;20497;-56
2022/07/10 05:35:24;;;;;;;7.82;2.00;;;21.60;59.90;;;;;;10381759;28;20120;-53
2022/07/10 05:40:25;;;;;;;4.30;1.60;;;21.60;59.90;;;;;;10367961;28;20472;-54
2022/07/10 05:45:27;;;;;;;6.00;1.15;;;21.60;59.70;;;;;;10367515;28;20029;-54
2022/07/10 05:50:28;;;;;;;8.43;1.10;;;21.60;59.90;;;;;;10399929;28;20025;-54
2022/07/10 05:55:28;;;;;;;6.05;1.48;;;21.50;60.00;;;;;;10369058;28;20083;-55
2022/07/10 06:00:29;;;;;;;4.93;1.33;;;21.50;59.80;;;;;;10367522;28;20030;-54
2022/07/10 06:05:30;;;;;;;4.85;1.02;;;21.60;59.90;;;;;;10381610;28;20473;-54
2022/07/10 06:10:31;;;;;;;6.10;1.20;;;21.50;59.90;;;;;;10364314;28;20113;-55
2022/07/10 06:15:31;;;;;;;4.50;0.93;;;21.50;60.00;;;;;;10376165;28;20029;-55
2022/07/10 06:20:32;;;;;;;5.50;1.33;;;21.50;59.90;;;;;;10407938;28;20033;-55
2022/07/10 06:25:33;;;;;;;3.15;1.10;;;21.50;60.00;;;;;;10384113;28;20053;-57
2022/07/10 06:30:34;;;;;;;4.22;1.67;;;21.50;59.90;;;;;;10381863;28;20034;-55
2022/07/10 06:35:34;;;;;;;5.75;1.27;;;21.50;60.00;;;;;;10367346;28;20041;-55
2022/07/10 06:40:37;;;;;;;4.85;1.13;;;21.50;60.00;;;;;;10349502;28;20529;-55
2022/07/10 06:45:39;;;;;;;6.13;1.70;;;21.50;60.00;;;;;;10349920;28;20052;-54
2022/07/10 06:50:41;;;;;;;2.05;0.95;;;21.40;59.90;;;;;;10398901;28;20539;-55
2022/07/10 06:55:42;;;;;;;4.85;2.03;;;21.40;60.00;;;;;;10387714;28;20034;-55
2022/07/10 07:00:43;;;;;;;3.38;0.95;;;21.50;60.00;;;;;;10365828;28;20069;-55
2022/07/10 07:05:44;;;;;;;7.88;1.73;;;21.40;60.00;;;;;;10367225;28;20029;-56
2022/07/10 07:10:44;;;;;;;10.48;1.67;;;21.40;60.80;;;;;;10391762;28;20113;-55
2022/07/10 07:15:53;;;;;;;5.65;1.58;;;21.50;61.70;;;;;;10367279;28;20420;-54
2022/07/10 07:26:12;;;;;;;10.40;1.95;;;21.50;61.60;;;;;;10389453;28;20042;-53
2022/07/10 07:31:13;;;;;;;8.57;1.73;;;21.50;62.60;;;;;;10373480;28;20022;-55
2022/07/10 07:36:14;;;;;;;16.20;2.88;;;21.50;62.50;;;;;;10379281;28;20129;-54
2022/07/10 07:41:15;;;;;;;11.00;3.22;;;21.60;61.80;;;;;;10349042;28;20034;-54
2022/07/10 07:46:16;;;;;;;8.68;1.85;;;21.60;61.90;;;;;;10401304;28;20033;-54
2022/07/10 07:51:17;;;;;;;8.52;2.00;;;21.50;62.00;;;;;;10410344;28;20033;-56
2022/07/10 07:56:18;;;;;;;9.02;2.28;;;21.50;62.10;;;;;;10406502;28;20056;-53
2022/07/10 08:01:19;;;;;;;20.65;2.92;;;21.50;62.30;;;;;;10385003;28;20034;-55
2022/07/10 08:06:20;;;;;;;11.88;2.33;;;21.60;62.60;;;;;;10374431;28;20361;-54
2022/07/10 08:11:20;;;;;;;12.57;2.05;;;21.60;62.60;;;;;;10371389;28;20486;-55
2022/07/10 08:16:21;;;;;;;18.30;2.50;;;21.60;62.60;;;;;;10371802;28;20114;-53
2022/07/10 08:21:22;;;;;;;18.50;3.08;;;21.60;62.70;;;;;;10371404;28;20034;-52
2022/07/10 08:26:23;;;;;;;25.33;3.63;;;21.60;62.90;;;;;;10389273;28;20098;-56
2022/07/10 08:31:23;;;;;;;17.00;3.15;;;21.60;62.90;;;;;;10388152;28;20117;-54
2022/07/10 08:36:24;;;;;;;13.60;2.72;;;21.60;62.70;;;;;;10371875;28;20042;-53
2022/07/10 08:41:26;;;;;;;15.35;3.15;;;21.60;62.40;;;;;;10393018;28;20675;-53
2022/07/10 08:46:28;;;;;;;14.43;2.78;;;21.60;62.10;;;;;;10380962;28;20041;-53
2022/07/10 08:52:08;;;;;;;8.30;2.13;;;21.50;61.90;;;;;;10390322;28;20176;-54
2022/07/10 08:57:10;;;;;;;14.57;2.78;;;21.50;61.80;;;;;;10389643;28;20045;-54
2022/07/10 09:02:10;;;;;;;9.77;2.42;;;21.60;61.90;;;;;;10377360;28;20084;-54
2022/07/10 09:07:11;;;;;;;5.93;2.05;;;21.60;61.90;;;;;;10384008;28;20030;-53
2022/07/10 09:12:12;;;;;;;23.00;4.80;;;21.50;62.10;;;;;;10396314;28;20018;-53
2022/07/10 09:17:13;;;;;;;52.55;10.40;;;21.50;61.80;;;;;;10383827;28;20072;-55
2022/07/10 09:22:15;;;;;;;43.30;7.78;;;21.60;62.60;;;;;;10370664;28;20132;-52
2022/07/10 09:27:16;;;;;;;42.10;6.72;;;21.60;62.70;;;;;;10394903;28;20037;-52
2022/07/10 09:32:17;;;;;;;28.75;5.93;;;21.60;63.00;;;;;;10386270;28;20374;-51
2022/07/10 09:37:20;;;;;;;36.28;6.30;;;21.60;62.80;;;;;;10368026;28;20054;-49
2022/07/10 09:42:47;;;;;;;32.05;6.25;;;21.60;63.50;;;;;;10381531;28;20057;-54
2022/07/10 09:47:55;;;;;;;25.73;6.03;;;21.70;63.40;;;;;;10368963;28;20038;-55
2022/07/10 09:53:12;;;;;;;29.38;6.38;;;21.60;63.40;;;;;;10391888;28;20113;-54
2022/07/10 09:58:15;;;;;;;26.00;4.90;;;21.70;63.60;;;;;;10352193;28;20393;-54
2022/07/10 10:03:20;;;;;;;29.30;6.68;;;21.70;63.30;;;;;;10369123;28;20026;-56
2022/07/10 10:08:56;;;;;;;28.42;5.13;;;21.70;63.40;;;;;;10375996;28;20018;-56
2022/07/10 10:13:57;;;;;;;28.00;5.68;;;21.70;62.30;;;;;;10367685;28;20481;-55
2022/07/10 10:24:22;;;;;;;26.08;4.47;;;21.70;62.80;;;;;;10382594;28;20041;-56
2022/07/10 10:29:23;;;;;;;16.77;3.60;;;21.60;62.30;;;;;;10405851;28;20381;-57
2022/07/10 10:34:42;;;;;;;17.08;4.10;;;21.60;62.30;;;;;;10392403;28;20025;-57
2022/07/10 10:39:53;;;;;;;19.60;6.03;;;21.60;62.70;;;;;;10373598;28;20050;-57
2022/07/10 10:45:29;;;;;;;15.00;3.58;;;21.60;62.30;;;;;;10398935;28;20025;-57
2022/07/10 10:50:53;;;;;;;13.40;3.53;;;21.60;62.40;;;;;;10390862;28;20021;-56
2022/07/10 10:56:07;;;;;;;14.43;3.25;;;21.50;62.40;;;;;;10380926;28;20045;-56
2022/07/10 11:01:29;;;;;;;9.40;3.00;;;21.60;62.20;;;;;;10378682;28;20025;-56
2022/07/10 11:06:59;;;;;;;15.93;2.97;;;21.60;62.30;;;;;;10368833;28;20096;-57
2022/07/10 11:12:10;;;;;;;;;;;21.60;62.20;;;;;;10380725;28;20469;-56
2022/07/10 11:17:10;;;;;;;9.02;2.65;;;21.60;62.30;;;;;;10368227;28;20260;-55
2022/07/10 11:22:46;;;;;;;12.10;2.88;;;21.60;62.30;;;;;;10376543;28;20038;-56
2022/07/10 11:28:08;;;;;;;8.75;2.50;;;21.60;62.30;;;;;;10380092;28;20382;-56
2022/07/10 11:33:09;;;;;;;12.68;3.38;;;21.60;62.40;;;;;;10381410;28;20022;-56
2022/07/10 11:38:10;;;;;;;8.80;2.33;;;21.50;62.90;;;;;;10374710;28;20037;-57
2022/07/10 11:43:14;;;;;;;9.95;3.17;;;21.50;62.30;;;;;;10389185;28;20515;-57
2022/07/10 11:48:23;;;;;;;5.78;2.20;;;21.50;62.40;;;;;;10387707;28;20072;-55
2022/07/10 11:53:26;;;;;;;9.40;2.67;;;21.50;62.10;;;;;;10375787;28;20026;-56
2022/07/10 11:58:26;;;;;;;6.90;2.78;;;21.50;62.00;;;;;;10386980;28;20041;-56
2022/07/10 12:03:27;;;;;;;7.18;1.85;;;21.50;62.20;;;;;;10373771;28;20122;-56
2022/07/10 12:08:28;;;;;;;7.82;2.30;;;21.50;62.30;;;;;;10357197;28;20036;-56
2022/07/10 12:13:28;;;;;;;7.85;2.00;;;21.50;61.90;;;;;;10373347;28;20044;-56
2022/07/10 12:18:32;;;;;;;5.10;2.00;;;21.60;62.30;;;;;;10373298;28;20029;-57
2022/07/10 12:23:35;;;;;;;5.68;2.38;;;21.60;61.80;;;;;;10373937;28;20066;-56
2022/07/10 12:28:56;;;;;;;3.70;1.60;;;21.60;61.90;;;;;;10373108;28;20076;-57
2022/07/10 12:34:03;;;;;;;6.70;2.50;;;21.60;62.00;;;;;;10384519;28;20083;-57
2022/07/10 12:39:03;;;;;;;3.17;1.60;;;21.60;62.00;;;;;;10398385;28;20050;-56
2022/07/10 12:44:05;;;;;;;3.55;1.90;;;21.60;62.00;;;;;;10374334;28;20045;-57
2022/07/10 12:49:08;;;;;;;3.92;1.40;;;21.60;62.10;;;;;;10383950;28;20030;-57
2022/07/10 12:54:09;;;;;;;3.78;1.67;;;21.60;62.00;;;;;;10373056;28;20084;-57
2022/07/10 12:59:14;;;;;;;3.85;2.00;;;21.60;62.10;;;;;;10388545;28;20030;-57
2022/07/10 13:04:22;;;;;;;7.20;1.83;;;21.60;62.40;;;;;;10389092;28;20038;-56
2022/07/10 13:09:25;;;;;;;11.57;2.05;;;21.60;61.30;;;;;;10370668;28;20558;-56
2022/07/10 13:14:26;;;;;;;6.32;2.28;;;21.90;60.90;;;;;;10382705;28;20026;-55
2022/07/10 13:19:26;;;;;;;6.28;1.98;;;21.90;61.20;;;;;;10388204;28;20034;-55
2022/07/10 13:24:27;;;;;;;4.07;1.65;;;21.80;61.10;;;;;;10408582;28;20219;-55
2022/07/10 13:29:28;;;;;;;3.08;1.80;;;21.80;60.60;;;;;;10408305;28;20030;-55
2022/07/10 13:34:28;;;;;;;4.95;2.03;;;21.80;60.70;;;;;;10376897;28;20072;-57
2022/07/10 13:39:29;;;;;;;4.13;1.60;;;21.70;60.30;;;;;;10368838;28;20050;-58
2022/07/10 13:44:30;;;;;;;3.42;1.52;;;21.70;60.10;;;;;;10367335;28;20049;-56
2022/07/10 13:49:31;;;;;;;4.55;1.67;;;21.70;60.30;;;;;;10385835;28;20037;-57
2022/07/10 13:54:31;;;;;;;3.80;1.60;;;21.70;60.70;;;;;;10382633;28;20109;-56
2022/07/10 13:59:32;;;;;;;11.27;1.98;;;21.70;60.30;;;;;;10386498;28;20028;-56
2022/07/10 14:04:33;;;;;;;5.90;2.08;;;21.70;60.10;;;;;;10386467;28;20044;-57
2022/07/10 14:09:33;;;;;;;16.95;2.80;;;21.70;60.60;;;;;;10387840;28;20034;-57
2022/07/10 14:14:34;;;;;;;22.48;3.58;;;21.70;59.20;;;;;;10402612;28;20108;-56
2022/07/10 14:19:35;;;;;;;8.50;1.80;;;21.80;59.40;;;;;;10397397;28;20034;-56
2022/07/10 14:24:36;;;;;;;9.73;1.90;;;21.80;59.30;;;;;;10397122;28;20509;-56
2022/07/10 14:29:36;;;;;;;8.65;1.58;;;21.80;58.90;;;;;;10400169;28;20108;-56
2022/07/10 14:34:37;;;;;;;12.85;2.22;;;21.80;58.90;;;;;;10402515;28;20571;-57
2022/07/10 14:39:38;;;;;;;14.52;2.38;;;21.80;59.00;;;;;;10397166;28;20424;-56
2022/07/10 14:44:38;;;;;;;10.30;1.63;;;21.80;59.00;;;;;;10396271;28;20083;-57
2022/07/10 14:49:39;;;;;;;8.32;2.08;;;21.80;59.80;;;;;;10403829;28;20029;-57
2022/07/10 14:54:41;;;;;;;18.17;3.38;;;21.80;59.40;;;;;;10375708;28;20216;-56
2022/07/10 14:59:43;;;;;;;13.95;2.40;;;21.80;59.40;;;;;;10393747;28;20075;-57
2022/07/10 15:04:44;;;;;;;9.65;1.80;;;21.80;59.50;;;;;;10382357;28;20036;-56
2022/07/10 15:09:45;;;;;;;10.73;2.50;;;21.70;59.40;;;;;;10385016;28;20434;-56
2022/07/10 15:14:46;;;;;;;10.80;2.85;;;21.70;59.30;;;;;;10390155;28;20100;-60
2022/07/10 15:19:47;;;;;;;10.20;3.50;;;21.80;59.60;;;;;;10385897;28;20030;-59
2022/07/10 15:24:49;;;;;;;7.35;2.70;;;21.90;60.50;;;;;;10384310;28;20117;-59
2022/07/10 15:29:52;;;;;;;7.10;2.85;;;21.90;61.40;;;;;;10382050;28;20488;-59
2022/07/10 15:34:53;;;;;;;6.32;2.40;;;21.90;61.00;;;;;;10380167;28;20030;-58
2022/07/10 15:39:54;;;;;;;14.00;2.70;;;22.00;61.20;;;;;;10394551;28;20124;-59
2022/07/10 15:44:55;;;;;;;9.90;2.33;;;21.90;60.20;;;;;;10390375;28;20061;-58
2022/07/10 15:49:56;;;;;;;7.05;2.03;;;21.80;60.30;;;;;;10395004;28;20099;-58
2022/07/10 15:54:57;;;;;;;5.35;2.10;;;21.80;60.30;;;;;;10394386;28;20039;-58
2022/07/10 15:59:58;;;;;;;7.40;2.17;;;21.80;60.50;;;;;;10390550;28;20022;-58
2022/07/10 16:04:58;;;;;;;4.30;2.25;;;21.80;60.20;;;;;;10365070;28;20105;-58
2022/07/10 16:09:59;;;;;;;6.00;2.00;;;21.80;59.50;;;;;;10373524;28;20025;-57
2022/07/10 16:15:00;;;;;;;3.15;1.60;;;21.80;59.50;;;;;;10374561;28;20033;-58
2022/07/10 16:20:01;;;;;;;3.80;2.15;;;21.80;59.40;;;;;;10383128;28;20121;-57
2022/07/10 16:30:21;;;;;;;;;;;21.80;59.60;;;;;;10393360;28;20033;-57
2022/07/10 16:35:22;;;;;;;5.45;2.00;;;21.80;60.00;;;;;;10388497;28;20307;-58
2022/07/10 16:40:22;;;;;;;9.77;1.95;;;21.80;60.20;;;;;;10386296;28;20144;-57
2022/07/10 16:45:23;;;;;;;11.30;2.67;;;21.80;59.70;;;;;;10382100;28;20030;-58
2022/07/10 16:50:25;;;;;;;13.45;2.30;;;21.80;60.20;;;;;;10410593;28;20053;-58
2022/07/10 16:55:26;;;;;;;9.95;2.50;;;21.80;60.50;;;;;;10385192;28;20109;-58
2022/07/10 17:00:28;;;;;;;5.82;2.20;;;21.80;61.00;;;;;;10364975;28;20124;-58
2022/07/10 17:05:29;;;;;;;7.40;2.00;;;21.90;61.30;;;;;;10391004;28;20048;-58
2022/07/10 17:10:30;;;;;;;7.65;1.95;;;21.80;61.30;;;;;;10388590;28;20453;-58
2022/07/10 17:15:31;;;;;;;3.75;2.10;;;21.80;61.30;;;;;;10386001;28;20113;-57
2022/07/10 17:20:32;;;;;;;12.70;3.13;;;21.80;61.20;;;;;;10379710;28;20037;-57
2022/07/10 17:25:32;;;;;;;5.78;1.80;;;21.80;61.40;;;;;;10378104;28;20783;-57
2022/07/10 17:30:33;;;;;;;6.20;2.25;;;21.70;61.00;;;;;;10369720;28;20028;-57
2022/07/10 17:35:34;;;;;;;8.60;2.00;;;21.70;60.60;;;;;;10396504;28;20489;-58
2022/07/10 17:40:35;;;;;;;8.95;2.60;;;21.70;60.90;;;;;;10392080;28;20155;-58
2022/07/10 17:45:35;;;;;;;17.02;2.90;;;21.70;60.80;;;;;;10373910;28;20038;-58
2022/07/10 17:50:37;;;;;;;7.32;2.42;;;21.70;60.70;;;;;;10389004;28;20589;-58
2022/07/10 17:55:38;;;;;;;5.80;2.20;;;21.80;60.60;;;;;;10388752;28;20536;-58
2022/07/10 18:00:39;;;;;;;5.80;2.33;;;21.80;60.70;;;;;;10372489;28;20033;-58
2022/07/10 18:05:41;;;;;;;7.13;3.05;;;21.80;60.70;;;;;;10386775;28;20045;-57
2022/07/10 18:10:44;;;;;;;5.53;1.90;;;21.80;60.80;;;;;;10383015;28;20046;-58
2022/07/10 18:15:45;;;;;;;3.55;2.03;;;21.80;60.90;;;;;;10382089;28;20036;-57
2022/07/10 18:20:45;;;;;;;4.45;2.10;;;21.80;60.70;;;;;;10389849;28;20468;-58
2022/07/10 18:25:46;;;;;;;3.22;2.20;;;21.80;60.70;;;;;;10382561;28;20068;-58
2022/07/10 18:30:48;;;;;;;3.65;2.47;;;21.80;61.10;;;;;;10382417;28;20036;-57
2022/07/10 18:35:49;;;;;;;4.45;2.42;;;21.80;61.30;;;;;;10407426;28;20063;-58
2022/07/10 18:40:51;;;;;;;5.25;2.05;;;21.80;61.40;;;;;;10388558;28;20047;-58
2022/07/10 18:45:51;;;;;;;5.03;2.78;;;21.80;61.60;;;;;;10387464;28;20041;-57
2022/07/10 18:50:52;;;;;;;3.35;2.35;;;21.80;61.80;;;;;;10386447;28;20112;-58
2022/07/10 18:55:53;;;;;;;4.82;2.83;;;21.80;62.20;;;;;;10384926;28;20029;-57
2022/07/10 19:00:54;;;;;;;7.32;2.10;;;21.80;61.90;;;;;;10376944;28;20034;-58
2022/07/10 19:05:55;;;;;;;5.10;2.30;;;21.80;62.40;;;;;;10379351;28;20504;-57
2022/07/10 19:10:56;;;;;;;5.00;2.30;;;21.80;62.40;;;;;;10365202;28;20487;-59
2022/07/10 19:15:56;;;;;;;3.60;2.13;;;21.80;61.90;;;;;;10362193;28;20037;-58
2022/07/10 19:20:57;;;;;;;6.22;1.88;;;21.70;61.60;;;;;;10378404;28;20034;-58
2022/07/10 19:25:58;;;;;;;6.13;2.42;;;21.80;61.60;;;;;;10365570;28;20041;-57
2022/07/10 19:30:58;;;;;;;3.35;2.00;;;21.70;61.40;;;;;;10370648;28;20026;-58
2022/07/10 19:35:59;;;;;;;6.38;2.28;;;21.80;61.40;;;;;;10366241;28;20026;-58
2022/07/10 19:41:03;;;;;;;4.03;1.80;;;21.80;61.20;;;;;;10367517;28;20030;-58
2022/07/10 19:46:04;;;;;;;6.32;2.40;;;21.80;61.30;;;;;;10374046;28;20061;-59
2022/07/10 19:51:07;;;;;;;4.53;2.45;;;21.70;61.30;;;;;;10385603;28;20029;-59
2022/07/10 19:56:08;;;;;;;3.85;2.25;;;21.80;61.60;;;;;;10385713;28;20022;-59
2022/07/10 20:01:09;;;;;;;5.60;2.00;;;21.70;61.50;;;;;;10393632;28;20033;-59
2022/07/10 20:06:10;;;;;;;6.20;2.22;;;21.70;61.60;;;;;;10382896;28;20029;-59
2022/07/10 20:11:10;;;;;;;4.93;1.83;;;21.70;61.60;;;;;;10379753;28;20465;-59
2022/07/10 20:16:12;;;;;;;2.90;1.88;;;21.70;61.60;;;;;;10386592;28;20030;-58
2022/07/10 20:21:12;;;;;;;3.95;1.52;;;21.70;61.60;;;;;;10397116;28;20021;-59
2022/07/10 20:26:13;;;;;;;4.18;1.88;;;21.70;61.60;;;;;;10379189;28;20405;-58
2022/07/10 20:31:14;;;;;;;2.47;1.67;;;21.70;61.60;;;;;;10380180;28;20388;-59
2022/07/10 20:41:34;;;;;;;3.22;1.88;;;21.70;61.50;;;;;;10398674;28;20033;-58
2022/07/10 20:46:34;;;;;;;3.78;1.55;;;21.70;61.50;;;;;;10401412;28;20034;-59
2022/07/10 20:51:35;;;;;;;3.75;1.50;;;21.70;61.50;;;;;;10388637;28;20033;-59
2022/07/10 20:56:36;;;;;;;4.57;1.80;;;21.70;61.50;;;;;;10385301;28;20025;-59
2022/07/10 21:01:36;;;;;;;3.67;1.95;;;21.70;61.50;;;;;;10380170;28;20208;-59
2022/07/10 21:06:37;;;;;;;2.58;2.08;;;21.70;61.50;;;;;;10371518;28;20045;-59
2022/07/10 21:11:38;;;;;;;2.08;1.48;;;21.70;61.50;;;;;;10374614;28;20033;-60
2022/07/10 21:16:38;;;;;;;1.90;1.33;;;21.70;61.50;;;;;;10389068;28;20048;-59
2022/07/10 21:21:40;;;;;;;1.90;1.30;;;21.70;61.50;;;;;;10399451;28;20044;-59
2022/07/10 21:26:40;;;;;;;1.98;1.35;;;21.70;61.60;;;;;;10398448;28;20449;-59
2022/07/10 21:31:41;;;;;;;3.22;1.40;;;21.70;61.60;;;;;;10411404;28;20025;-60
2022/07/10 21:36:42;;;;;;;2.88;1.42;;;21.70;61.60;;;;;;10384954;28;20046;-60
2022/07/10 21:41:43;;;;;;;1.60;1.17;;;21.70;61.60;;;;;;10371518;28;20037;-59
2022/07/10 21:46:44;;;;;;;2.90;1.35;;;21.70;61.70;;;;;;10370156;28;20553;-59
2022/07/10 21:51:44;;;;;;;3.00;1.38;;;21.70;61.60;;;;;;10404811;28;20025;-59
2022/07/10 21:56:45;;;;;;;2.65;1.77;;;21.70;61.60;;;;;;10370727;28;20026;-60
2022/07/10 22:01:46;;;;;;;2.20;1.40;;;21.70;61.60;;;;;;10377928;28;20432;-58
2022/07/10 22:06:49;;;;;;;1.90;1.63;;;21.70;61.70;;;;;;10376307;28;20045;-59
2022/07/10 22:11:50;;;;;;;2.72;1.63;;;21.70;61.70;;;;;;10373634;28;20104;-59
2022/07/10 22:16:50;;;;;;;1.88;1.67;;;21.70;61.70;;;;;;10373503;28;20045;-58
2022/07/10 22:21:51;;;;;;;2.28;1.55;;;21.70;61.70;;;;;;10377309;28;20029;-59
2022/07/10 22:26:52;;;;;;;2.20;1.58;;;21.70;61.70;;;;;;10380392;28;20030;-59
2022/07/10 22:31:52;;;;;;;2.53;1.75;;;21.70;61.70;;;;;;10368452;28;20736;-59
2022/07/10 22:36:53;;;;;;;2.65;1.55;;;21.70;61.70;;;;;;10368409;28;20042;-59
2022/07/10 22:41:54;;;;;;;2.30;1.38;;;21.70;61.70;;;;;;10365789;28;20125;-59
2022/07/10 22:46:54;;;;;;;2.50;1.52;;;21.70;61.80;;;;;;10370738;28;20101;-59
2022/07/10 22:51:56;;;;;;;1.50;1.08;;;21.70;61.80;;;;;;10399063;28;20116;-59
2022/07/10 22:56:57;;;;;;;2.50;1.30;;;21.70;61.80;;;;;;10381257;28;20034;-59
2022/07/10 23:01:58;;;;;;;2.17;1.42;;;21.70;61.80;;;;;;10408656;28;20036;-59
2022/07/10 23:06:59;;;;;;;2.72;1.90;;;21.70;61.90;;;;;;10389910;28;20519;-59
2022/07/10 23:12:00;;;;;;;3.22;1.75;;;21.70;61.90;;;;;;10368742;28;20088;-59
2022/07/10 23:17:01;;;;;;;2.33;1.63;;;21.70;61.90;;;;;;10374273;28;20051;-59
2022/07/10 23:22:02;;;;;;;1.38;1.08;;;21.60;61.90;;;;;;10408056;28;20033;-58
2022/07/10 23:27:03;;;;;;;2.45;1.50;;;21.60;61.90;;;;;;10385563;28;20462;-59
2022/07/10 23:32:04;;;;;;;2.22;1.70;;;21.60;62.50;;;;;;10373426;28;20468;-59
2022/07/10 23:37:05;;;;;;;2.45;1.73;;;21.70;62.50;;;;;;10397167;28;20081;-59
2022/07/10 23:42:06;;;;;;;1.88;1.15;;;21.60;61.90;;;;;;10389135;28;20061;-59
2022/07/10 23:47:07;;;;;;;1.80;1.27;;;21.60;61.90;;;;;;10385414;28;20037;-60
2022/07/10 23:52:08;;;;;;;2.00;1.63;;;21.60;61.90;;;;;;10391474;28;20033;-59
2022/07/10 23:57:10;;;;;;;2.13;1.30;;;21.60;62.60;;;;;;10398382;28;20041;-59
